createdAt,value
2022-10-18T00:01:37.480Z,100022.88
2022-10-18T00:04:05.793Z,100027.88
2022-10-18T00:06:34.160Z,100025.44
2022-10-18T00:09:07.541Z,100032.00
2022-10-18T00:11:38.944Z,100032.84
2022-10-18T00:14:07.373Z,100039.31
2022-10-18T00:16:37.452Z,100033.81
2022-10-18T00:19:05.950Z,100036.84
2022-10-18T00:21:34.505Z,100032.47
2022-10-18T00:24:03.121Z,100032.59
2022-10-18T00:26:33.343Z,100045.88
2022-10-18T00:29:04.388Z,100038.59
2022-10-18T00:31:35.935Z,100047.47
2022-10-18T00:34:10.426Z,100051.22
2022-10-18T00:36:40.057Z,100043.81
2022-10-18T00:39:12.613Z,100037.81
2022-10-18T00:41:41.417Z,100032.25
2022-10-18T00:44:48.448Z,100029.31
2022-10-18T00:47:19.501Z,100037.09
2022-10-18T00:49:53.280Z,100038.31
2022-10-18T00:52:25.652Z,100042.19
2022-10-18T00:54:54.973Z,100052.53
2022-10-18T00:57:24.006Z,100047.28
2022-10-18T00:59:52.751Z,100040.59
2022-10-18T01:02:21.252Z,100046.19
2022-10-18T01:04:51.128Z,100051.69
2022-10-18T01:07:32.194Z,100052.03
2022-10-18T01:10:11.421Z,100059.81
2022-10-18T01:12:49.220Z,100060.66
2022-10-18T01:15:29.856Z,100061.63
2022-10-18T01:18:06.441Z,100061.38
2022-10-18T01:21:19.536Z,100056.03
2022-10-18T01:24:19.218Z,100052.31
2022-10-18T01:27:04.756Z,100055.31
2022-10-18T01:29:47.132Z,100056.81
2022-10-18T01:32:21.723Z,100048.19
2022-10-18T01:34:54.013Z,100051.84
2022-10-18T01:37:24.623Z,100047.22
2022-10-18T01:39:57.325Z,100040.63
2022-10-18T01:42:26.377Z,100039.19
2022-10-18T01:44:56.762Z,100035.28
2022-10-18T01:47:28.904Z,100023.47
2022-10-18T01:50:01.288Z,100024.94
2022-10-18T01:52:31.563Z,100019.06
2022-10-18T01:55:04.630Z,100028.19
2022-10-18T01:57:43.257Z,100011.75
2022-10-18T02:00:16.459Z,100012.41
2022-10-18T02:02:58.854Z,100011.66
2022-10-18T02:05:33.835Z,100023.19
2022-10-18T02:08:24.002Z,100035.00
2022-10-18T02:10:56.921Z,100051.94
2022-10-18T02:13:28.247Z,100050.63
2022-10-18T02:16:01.159Z,100047.78
2022-10-18T02:18:38.228Z,100052.78
2022-10-18T02:21:10.640Z,100050.59
2022-10-18T02:23:40.091Z,100049.16
2022-10-18T02:26:08.800Z,100044.88
2022-10-18T02:28:37.141Z,100051.47
2022-10-18T02:31:09.643Z,100034.75
2022-10-18T02:33:47.265Z,100034.28
2022-10-18T02:36:35.096Z,100036.75
2022-10-18T02:39:08.241Z,100050.75
2022-10-18T02:41:36.936Z,100049.16
2022-10-18T02:44:05.527Z,100058.91
2022-10-18T02:46:35.416Z,100051.59
2022-10-18T02:49:06.308Z,100043.56
2022-10-18T02:51:34.953Z,100057.56
2022-10-18T02:54:03.768Z,100054.75
2022-10-18T02:56:32.153Z,100052.19
2022-10-18T02:59:00.529Z,100050.38
2022-10-18T03:01:28.883Z,100037.81
2022-10-18T03:03:57.442Z,100036.75
2022-10-18T03:06:27.898Z,100042.47
2022-10-18T03:08:56.479Z,100044.53
2022-10-18T03:11:25.811Z,100051.13
2022-10-18T03:13:56.502Z,100053.28
2022-10-18T03:16:25.832Z,100052.78
2022-10-18T03:18:54.564Z,100060.59
2022-10-18T03:21:23.358Z,100070.66
2022-10-18T03:23:55.251Z,100065.09
2022-10-18T03:26:23.771Z,100065.56
2022-10-18T03:28:53.205Z,100069.09
2022-10-18T03:31:21.824Z,100069.06
2022-10-18T03:33:50.286Z,100072.22
2022-10-18T03:36:18.945Z,100070.19
2022-10-18T03:38:47.273Z,100064.59
2022-10-18T03:41:17.156Z,100067.53
2022-10-18T03:43:45.495Z,100072.91
2022-10-18T03:46:13.795Z,100082.78
2022-10-18T03:48:41.852Z,100083.00
2022-10-18T03:51:10.159Z,100088.56
2022-10-18T03:53:38.817Z,100081.38
2022-10-18T03:56:08.017Z,100074.44
2022-10-18T03:58:38.217Z,100073.59
2022-10-18T04:01:07.182Z,100075.41
2022-10-18T04:03:35.848Z,100080.78
2022-10-18T04:06:03.949Z,100089.41
2022-10-18T04:08:32.222Z,100091.59
2022-10-18T04:11:00.637Z,100098.75
2022-10-18T04:13:29.079Z,100101.81
2022-10-18T04:15:59.064Z,100092.56
2022-10-18T04:18:27.841Z,100086.22
2022-10-18T04:20:56.381Z,100088.38
2022-10-18T04:23:24.577Z,100083.56
2022-10-18T04:25:52.896Z,100088.16
2022-10-18T04:28:21.563Z,100080.34
2022-10-18T04:30:53.482Z,100077.19
2022-10-18T04:33:23.737Z,100080.66
2022-10-18T04:35:54.171Z,100073.28
2022-10-18T04:38:22.983Z,100071.03
2022-10-18T04:40:52.697Z,100062.78
2022-10-18T04:43:21.161Z,100068.38
2022-10-18T04:45:51.320Z,100053.69
2022-10-18T04:48:20.474Z,100060.06
2022-10-18T04:50:51.864Z,100059.19
2022-10-18T04:53:20.887Z,100058.75
2022-10-18T04:55:50.799Z,100056.28
2022-10-18T04:58:19.712Z,100064.06
2022-10-18T05:00:49.364Z,100068.31
2022-10-18T05:03:19.813Z,100067.47
2022-10-18T05:06:03.947Z,100059.31
2022-10-18T05:08:34.788Z,100057.66
2022-10-18T05:11:03.546Z,100049.31
2022-10-18T05:13:32.488Z,100038.81
2022-10-18T05:16:00.966Z,100046.34
2022-10-18T05:18:29.563Z,100052.44
2022-10-18T05:20:58.120Z,100072.81
2022-10-18T05:23:26.817Z,100075.88
2022-10-18T05:25:57.131Z,100090.09
2022-10-18T05:28:39.289Z,100091.25
2022-10-18T05:31:11.896Z,100090.16
2022-10-18T05:33:40.198Z,100085.09
2022-10-18T05:36:09.603Z,100082.84
2022-10-18T05:38:42.360Z,100086.00
2022-10-18T05:41:15.025Z,100085.47
2022-10-18T05:43:43.379Z,100090.47
2022-10-18T05:46:15.452Z,100092.53
2022-10-18T05:48:44.772Z,100094.69
2022-10-18T05:51:13.571Z,100094.88
2022-10-18T05:53:42.044Z,100092.53
2022-10-18T05:56:12.114Z,100091.31
2022-10-18T05:58:42.917Z,100096.75
2022-10-18T06:01:12.163Z,100090.50
2022-10-18T06:03:41.002Z,100090.50
2022-10-18T06:06:11.788Z,100092.00
2022-10-18T06:08:41.985Z,100101.50
2022-10-18T06:11:11.753Z,100103.19
2022-10-18T06:13:45.656Z,100098.69
2022-10-18T06:16:18.353Z,100101.38
2022-10-18T06:18:49.356Z,100106.00
2022-10-18T06:21:18.406Z,100098.09
2022-10-18T06:23:50.146Z,100099.00
2022-10-18T06:26:18.614Z,100103.22
2022-10-18T06:28:48.922Z,100093.19
2022-10-18T06:31:17.672Z,100102.25
2022-10-18T06:33:47.699Z,100110.69
2022-10-18T06:36:18.092Z,100104.25
2022-10-18T06:38:46.529Z,100104.84
2022-10-18T06:41:18.113Z,100115.53
2022-10-18T06:43:51.479Z,100116.88
2022-10-18T06:46:20.337Z,100130.50
2022-10-18T06:48:52.666Z,100126.44
2022-10-18T06:51:21.847Z,100132.56
2022-10-18T06:53:59.571Z,100132.19
2022-10-18T06:56:39.728Z,100138.00
2022-10-18T06:59:09.783Z,100133.97
2022-10-18T07:01:38.332Z,100137.16
2022-10-18T07:04:06.900Z,100142.97
2022-10-18T07:06:35.415Z,100142.97
2022-10-18T07:09:04.467Z,100138.69
2022-10-18T07:11:32.978Z,100139.50
2022-10-18T07:14:05.107Z,100144.38
2022-10-18T07:16:36.308Z,100144.16
2022-10-18T07:19:04.916Z,100148.94
2022-10-18T07:21:33.534Z,100147.03
2022-10-18T07:24:01.941Z,100151.22
2022-10-18T07:26:32.517Z,100160.63
2022-10-18T07:29:03.727Z,100162.09
2022-10-18T07:31:32.249Z,100167.22
2022-10-18T07:34:02.570Z,100173.16
2022-10-18T07:36:31.158Z,100172.53
2022-10-18T07:39:00.132Z,100184.00
2022-10-18T07:41:29.182Z,100177.53
2022-10-18T07:43:57.554Z,100184.47
2022-10-18T07:46:26.375Z,100183.91
2022-10-18T07:48:58.570Z,100186.06
2022-10-18T07:51:31.017Z,100188.88
2022-10-18T07:54:03.048Z,100193.38
2022-10-18T07:56:31.685Z,100196.13
2022-10-18T07:59:00.101Z,100186.53
2022-10-18T08:01:29.639Z,100177.97
2022-10-18T08:04:03.232Z,100184.47
2022-10-18T08:06:35.909Z,100179.13
2022-10-18T08:09:04.726Z,100183.06
2022-10-18T08:11:33.149Z,100181.06
2022-10-18T08:14:01.503Z,100180.59
2022-10-18T08:19:01.150Z,100175.53
2022-10-18T08:21:32.097Z,100169.22
2022-10-18T08:24:05.454Z,100181.97
2022-10-18T08:26:38.041Z,100176.69
2022-10-18T08:29:22.972Z,100185.63
2022-10-18T08:31:54.061Z,100188.13
2022-10-18T08:34:22.877Z,100192.41
2022-10-18T08:36:52.349Z,100188.41
2022-10-18T08:39:22.593Z,100192.22
2022-10-18T08:42:10.174Z,100186.63
2022-10-18T08:44:45.884Z,100190.34
2022-10-18T08:47:18.386Z,100192.16
2022-10-18T08:49:50.991Z,100192.50
2022-10-18T08:52:30.368Z,100196.09
2022-10-18T08:55:04.009Z,100189.06
2022-10-18T08:57:33.878Z,100184.97
2022-10-18T09:00:04.027Z,100178.69
2022-10-18T09:02:45.751Z,100184.94
2022-10-18T09:05:24.667Z,100180.28
2022-10-18T09:08:23.097Z,100178.97
2022-10-18T09:11:02.551Z,100176.88
2022-10-18T09:13:59.011Z,100185.69
2022-10-18T09:16:36.237Z,100181.06
2022-10-18T09:19:13.000Z,100184.63
2022-10-18T09:21:52.915Z,100184.53
2022-10-18T09:24:29.240Z,100186.22
2022-10-18T09:27:09.912Z,100184.78
2022-10-18T09:29:57.179Z,100183.38
2022-10-18T09:32:38.101Z,100188.59
2022-10-18T09:35:17.239Z,100191.16
2022-10-18T09:37:49.241Z,100193.63
2022-10-18T09:40:21.702Z,100192.56
2022-10-18T09:43:12.855Z,100187.25
2022-10-18T09:45:46.606Z,100183.88
2022-10-18T09:48:24.695Z,100185.84
2022-10-18T09:50:59.127Z,100185.97
2022-10-18T09:53:39.593Z,100179.75
2022-10-18T09:56:13.016Z,100184.50
2022-10-18T09:58:47.023Z,100180.34
2022-10-18T10:01:21.503Z,100168.63
2022-10-18T10:03:53.906Z,100169.63
2022-10-18T10:06:29.453Z,100173.88
2022-10-18T10:09:06.673Z,100179.25
2022-10-18T10:11:39.006Z,100185.25
2022-10-18T10:14:20.098Z,100185.97
2022-10-18T10:16:55.764Z,100186.44
2022-10-18T10:19:34.186Z,100185.72
2022-10-18T10:22:07.603Z,100185.72
2022-10-18T10:24:46.342Z,100189.59
2022-10-18T10:27:21.737Z,100195.34
2022-10-18T10:30:04.172Z,100195.22
2022-10-18T10:32:47.470Z,100192.53
2022-10-18T10:35:41.485Z,100186.59
2022-10-18T10:38:27.009Z,100181.69
2022-10-18T10:40:58.466Z,100180.94
2022-10-18T10:43:40.042Z,100179.25
2022-10-18T10:46:13.235Z,100184.38
2022-10-18T10:48:48.951Z,100181.19
2022-10-18T10:51:22.916Z,100177.78
2022-10-18T10:53:58.967Z,100175.63
2022-10-18T10:56:30.045Z,100186.81
2022-10-18T10:59:07.958Z,100186.56
2022-10-18T11:01:38.290Z,100200.56
2022-10-18T11:04:25.907Z,100193.63
2022-10-18T11:07:05.389Z,100200.94
2022-10-18T11:09:47.487Z,100207.88
2022-10-18T11:12:24.375Z,100207.16
2022-10-18T11:15:06.342Z,100208.38
2022-10-18T11:17:44.129Z,100209.84
2022-10-18T11:20:24.349Z,100210.06
2022-10-18T11:23:07.065Z,100201.28
2022-10-18T11:25:50.496Z,100203.97
2022-10-18T11:28:28.257Z,100200.34
2022-10-18T11:31:13.365Z,100195.22
2022-10-18T11:34:08.743Z,100201.81
2022-10-18T11:36:56.356Z,100194.00
2022-10-18T11:39:40.513Z,100181.44
2022-10-18T11:42:21.554Z,100180.59
2022-10-18T11:45:05.149Z,100184.13
2022-10-18T11:47:42.628Z,100174.22
2022-10-18T11:50:26.768Z,100164.47
2022-10-18T11:53:08.658Z,100163.50
2022-10-18T11:55:51.195Z,100163.72
2022-10-18T11:58:35.122Z,100150.22
2022-10-18T12:01:14.713Z,100148.75
2022-10-18T12:03:56.080Z,100144.09
2022-10-18T12:06:34.368Z,100143.06
2022-10-18T12:09:10.341Z,100133.19
2022-10-18T12:11:47.466Z,100132.41
2022-10-18T12:14:25.982Z,100121.88
2022-10-18T12:17:28.093Z,100115.66
2022-10-18T12:19:49.262Z,100111.66
2022-10-18T12:22:25.154Z,100107.84
2022-10-18T12:24:58.249Z,100112.97
2022-10-18T12:27:38.786Z,100103.69
2022-10-18T12:30:16.824Z,100084.72
2022-10-18T12:33:02.065Z,100076.66
2022-10-18T12:35:51.913Z,100071.69
2022-10-18T12:38:31.054Z,100064.53
2022-10-18T12:41:00.425Z,100054.31
2022-10-18T12:43:36.933Z,100048.38
2022-10-18T12:46:13.787Z,100045.94
2022-10-18T12:48:48.212Z,100045.63
2022-10-18T12:51:18.824Z,100044.81
2022-10-18T12:53:57.165Z,100046.50
2022-10-18T12:56:42.223Z,100050.03
2022-10-18T12:59:56.768Z,100056.44
2022-10-18T13:02:34.222Z,100053.94
2022-10-18T13:05:53.111Z,100057.00
2022-10-18T13:08:43.783Z,100051.47
2022-10-18T13:11:35.963Z,100052.09
2022-10-18T13:14:59.173Z,100045.44
2022-10-18T13:17:40.699Z,100045.03
2022-10-18T13:20:28.567Z,100047.00
2022-10-18T13:23:22.635Z,100037.03
2022-10-18T13:26:01.791Z,100037.44
2022-10-18T13:28:38.048Z,100030.41
2022-10-18T13:31:19.128Z,100037.06
2022-10-18T13:33:47.737Z,100045.00
2022-10-18T13:36:26.521Z,100035.13
2022-10-18T13:39:06.349Z,100042.97
2022-10-18T13:42:13.499Z,100039.06
2022-10-18T13:44:43.746Z,100035.97
2022-10-18T13:47:14.160Z,100041.06
2022-10-18T13:50:12.551Z,100038.38
2022-10-18T13:53:33.688Z,100032.22
2022-10-18T13:56:25.731Z,100031.34
2022-10-18T13:59:15.262Z,100039.34
2022-10-18T14:01:57.122Z,100048.97
2022-10-18T14:05:23.623Z,100053.81
2022-10-18T14:07:58.570Z,100062.34
2022-10-18T14:10:50.047Z,100066.72
2022-10-18T14:13:23.721Z,100065.56
2022-10-18T14:15:58.125Z,100061.19
2022-10-18T14:18:32.478Z,100053.16
2022-10-18T14:21:15.253Z,100059.69
2022-10-18T14:23:46.712Z,100058.41
2022-10-18T14:26:17.458Z,100065.56
2022-10-18T14:28:59.485Z,100068.44
2022-10-18T14:31:33.197Z,100068.75
2022-10-18T14:34:02.377Z,100074.25
2022-10-18T14:36:38.884Z,100073.41
2022-10-18T14:39:09.108Z,100069.28
2022-10-18T14:41:39.042Z,100067.28
2022-10-18T14:44:21.449Z,100068.88
2022-10-18T14:47:02.551Z,100073.69
2022-10-18T14:49:32.364Z,100072.56
2022-10-18T14:52:02.106Z,100072.41
2022-10-18T14:54:35.114Z,100082.03
2022-10-18T14:57:04.888Z,100082.03
2022-10-18T14:59:38.725Z,100088.81
2022-10-18T15:02:17.098Z,100085.72
2022-10-18T15:04:48.112Z,100084.03
2022-10-18T15:07:18.536Z,100084.28
2022-10-18T15:09:50.346Z,100082.47
2022-10-18T15:12:21.060Z,100087.88
2022-10-18T15:14:50.986Z,100090.13
2022-10-18T15:17:25.903Z,100094.22
2022-10-18T15:20:03.305Z,100094.69
2022-10-18T15:22:35.434Z,100092.13
2022-10-18T15:25:18.882Z,100084.53
2022-10-18T15:27:49.321Z,100083.03
2022-10-18T15:30:23.978Z,100072.50
2022-10-18T15:32:58.579Z,100060.16
2022-10-18T15:35:30.847Z,100064.53
2022-10-18T15:38:03.619Z,100070.41
2022-10-18T15:40:40.229Z,100076.22
2022-10-18T15:43:36.598Z,100070.84
2022-10-18T15:46:07.453Z,100075.72
2022-10-18T15:48:41.925Z,100076.13
2022-10-18T15:51:22.028Z,100086.88
2022-10-18T15:53:54.212Z,100082.88
2022-10-18T15:56:34.370Z,100094.97
2022-10-18T15:59:05.750Z,100096.22
2022-10-18T16:01:39.035Z,100097.06
2022-10-18T16:04:18.333Z,100105.16
2022-10-18T16:06:47.687Z,100105.00
2022-10-18T16:09:18.854Z,100105.72
2022-10-18T16:11:55.600Z,100097.91
2022-10-18T16:14:30.259Z,100105.56
2022-10-18T16:17:02.324Z,100113.28
2022-10-18T16:19:33.168Z,100112.75
2022-10-18T16:22:06.576Z,100110.63
2022-10-18T16:24:35.390Z,100111.88
2022-10-18T16:27:05.742Z,100118.00
2022-10-18T16:29:34.774Z,100114.38
2022-10-18T16:32:05.669Z,100116.53
2022-10-18T16:34:36.546Z,100125.81
2022-10-18T16:37:05.443Z,100125.94
2022-10-18T16:39:35.504Z,100126.63
2022-10-18T16:42:03.890Z,100136.75
2022-10-18T16:44:33.853Z,100143.88
2022-10-18T16:47:03.896Z,100145.63
2022-10-18T16:49:36.606Z,100147.84
2022-10-18T16:52:06.501Z,100161.69
2022-10-18T16:54:38.863Z,100163.25
2022-10-18T16:57:07.232Z,100170.72
2022-10-18T16:59:35.447Z,100179.59
2022-10-18T17:02:09.154Z,100181.09
2022-10-18T17:04:38.685Z,100173.25
2022-10-18T17:07:11.873Z,100171.31
2022-10-18T17:09:40.986Z,100173.41
2022-10-18T17:12:10.258Z,100176.34
2022-10-18T17:14:38.837Z,100176.69
2022-10-18T17:17:08.273Z,100192.19
2022-10-18T17:19:38.545Z,100188.75
2022-10-18T17:22:12.867Z,100194.72
2022-10-18T17:24:46.481Z,100198.09
2022-10-18T17:27:22.807Z,100203.09
2022-10-18T17:29:56.626Z,100204.06
2022-10-18T17:32:26.060Z,100212.34
2022-10-18T17:34:59.064Z,100212.69
2022-10-18T17:37:54.185Z,100218.31
2022-10-18T17:40:24.606Z,100214.53
2022-10-18T17:42:53.629Z,100221.16
2022-10-18T17:45:23.138Z,100221.00
2022-10-18T17:47:54.694Z,100227.50
2022-10-18T17:50:26.515Z,100230.94
2022-10-18T17:52:57.757Z,100236.50
2022-10-18T17:55:30.661Z,100233.06
2022-10-18T17:57:59.018Z,100238.59
2022-10-18T18:00:29.908Z,100246.56
2022-10-18T18:03:00.756Z,100247.94
2022-10-18T18:05:33.308Z,100251.25
2022-10-18T18:08:04.421Z,100253.63
2022-10-18T18:10:37.241Z,100251.53
2022-10-18T18:13:08.708Z,100254.63
2022-10-18T18:15:37.625Z,100252.75
2022-10-18T18:18:07.510Z,100261.63
2022-10-18T18:20:36.285Z,100255.00
2022-10-18T18:23:06.250Z,100260.19
2022-10-18T18:25:36.805Z,100250.22
2022-10-18T18:28:11.721Z,100261.03
2022-10-18T18:30:41.314Z,100262.47
2022-10-18T18:33:10.635Z,100260.69
2022-10-18T18:35:41.854Z,100258.25
2022-10-18T18:38:12.556Z,100255.03
2022-10-18T18:40:42.485Z,100247.84
2022-10-18T18:43:22.716Z,100247.66
2022-10-18T18:45:53.719Z,100230.56
2022-10-18T18:48:23.374Z,100219.56
2022-10-18T18:51:00.542Z,100225.47
2022-10-18T18:53:39.708Z,100220.41
2022-10-18T18:56:11.221Z,100222.03
2022-10-18T18:58:40.725Z,100220.63
2022-10-18T19:01:13.946Z,100219.59
2022-10-18T19:03:47.123Z,100226.66
2022-10-18T19:06:19.598Z,100223.88
2022-10-18T19:08:50.746Z,100220.00
2022-10-18T19:11:21.604Z,100223.03
2022-10-18T19:13:53.042Z,100220.56
2022-10-18T19:16:31.694Z,100226.66
2022-10-18T19:19:06.427Z,100219.81
2022-10-18T19:21:37.705Z,100218.75
2022-10-18T19:24:08.892Z,100225.81
2022-10-18T19:26:41.921Z,100233.50
2022-10-18T19:29:15.141Z,100233.19
2022-10-18T19:31:46.801Z,100235.34
2022-10-18T19:34:19.825Z,100237.16
2022-10-18T19:36:52.466Z,100232.66
2022-10-18T19:39:29.546Z,100234.38
2022-10-18T19:41:59.883Z,100233.28
2022-10-18T19:44:32.501Z,100238.19
2022-10-18T19:47:01.682Z,100239.72
2022-10-18T19:49:33.468Z,100233.28
2022-10-18T19:54:50.383Z,100230.72
2022-10-18T19:57:19.460Z,100224.94
2022-10-18T19:59:51.712Z,100226.63
2022-10-18T20:02:25.140Z,100222.66
2022-10-18T20:04:54.698Z,100231.72
2022-10-18T20:07:24.677Z,100234.25
2022-10-18T20:10:00.309Z,100225.56
2022-10-18T20:12:30.628Z,100235.34
2022-10-18T20:14:59.784Z,100237.16
2022-10-18T20:17:28.254Z,100229.31
2022-10-18T20:19:57.238Z,100229.84
2022-10-18T20:22:26.211Z,100221.91
2022-10-18T20:24:57.919Z,100213.41
2022-10-18T20:27:26.766Z,100218.75
2022-10-18T20:29:57.769Z,100224.59
2022-10-18T20:32:26.440Z,100222.00
2022-10-18T20:34:55.334Z,100218.75
2022-10-18T20:37:23.739Z,100221.28
2022-10-18T20:39:52.736Z,100221.38
2022-10-18T20:42:24.167Z,100232.66
2022-10-18T20:44:53.191Z,100234.56
2022-10-18T20:47:22.698Z,100233.13
2022-10-18T20:49:52.202Z,100248.59
2022-10-18T20:52:23.503Z,100250.03
2022-10-18T20:54:53.797Z,100253.72
2022-10-18T20:57:23.698Z,100262.03
2022-10-18T20:59:52.024Z,100264.13
2022-10-18T21:02:21.986Z,100279.34
2022-10-18T21:04:50.499Z,100277.84
2022-10-18T21:07:21.686Z,100278.31
2022-10-18T21:09:51.892Z,100278.41
2022-10-18T21:12:20.686Z,100278.19
2022-10-18T21:14:56.672Z,100274.22
2022-10-18T21:17:25.942Z,100274.31
2022-10-18T21:19:56.071Z,100277.44
2022-10-18T21:22:25.267Z,100273.75
2022-10-18T21:24:53.931Z,100274.44
2022-10-18T21:27:22.936Z,100278.31
2022-10-18T21:30:03.296Z,100277.94
2022-10-18T21:32:32.644Z,100277.34
2022-10-18T21:35:01.711Z,100276.41
2022-10-18T21:37:30.205Z,100280.78
2022-10-18T21:39:58.585Z,100283.63
2022-10-18T21:42:39.171Z,100277.63
2022-10-18T21:45:12.471Z,100272.97
2022-10-18T21:47:41.253Z,100278.13
2022-10-18T21:50:13.057Z,100268.59
2022-10-18T21:52:42.896Z,100268.69
2022-10-18T21:55:12.270Z,100267.94
2022-10-18T21:57:40.706Z,100263.50
2022-10-18T22:00:17.151Z,100257.59
2022-10-18T22:02:48.436Z,100251.25
2022-10-18T22:05:17.661Z,100243.72
2022-10-18T22:07:46.139Z,100253.81
2022-10-18T22:10:15.190Z,100254.47
2022-10-18T22:12:47.124Z,100255.16
2022-10-18T22:15:17.940Z,100251.25
2022-10-18T22:17:47.782Z,100248.50
2022-10-18T22:20:21.362Z,100247.16
2022-10-18T22:22:54.434Z,100241.31
2022-10-18T22:25:23.406Z,100242.97
2022-10-18T22:27:52.901Z,100239.31
2022-10-18T22:30:26.152Z,100247.34
2022-10-18T22:32:57.371Z,100240.72
2022-10-18T22:35:26.017Z,100247.66
2022-10-18T22:37:58.167Z,100251.72
2022-10-18T22:40:27.350Z,100269.66
2022-10-18T22:42:56.917Z,100259.91
2022-10-18T22:45:29.182Z,100262.88
2022-10-18T22:47:57.902Z,100267.94
2022-10-18T22:50:26.431Z,100266.06
2022-10-18T22:52:55.054Z,100266.41
2022-10-18T22:55:23.737Z,100265.59
2022-10-18T22:57:52.640Z,100270.34
2022-10-18T23:00:21.968Z,100267.25
2022-10-18T23:02:56.946Z,100267.34
2022-10-18T23:05:25.805Z,100269.22
2022-10-18T23:07:57.889Z,100258.34
2022-10-18T23:10:26.478Z,100252.25
2022-10-18T23:12:55.827Z,100260.22
2022-10-18T23:15:25.993Z,100253.00
2022-10-18T23:17:57.327Z,100260.03
2022-10-18T23:20:26.807Z,100259.59
2022-10-18T23:22:57.188Z,100269.56
2022-10-18T23:25:27.289Z,100263.50
2022-10-18T23:27:56.085Z,100262.00
2022-10-18T23:30:24.872Z,100262.44
2022-10-18T23:32:56.080Z,100260.47
2022-10-18T23:35:26.071Z,100266.13
2022-10-18T23:37:55.719Z,100261.84
2022-10-18T23:40:28.013Z,100268.88
2022-10-18T23:42:58.505Z,100271.34
2022-10-18T23:45:28.424Z,100279.69
2022-10-18T23:47:58.462Z,100275.00
2022-10-18T23:50:27.962Z,100280.06
2022-10-18T23:52:56.640Z,100276.13
2022-10-18T23:55:25.059Z,100276.41
2022-10-18T23:57:53.411Z,100274.16
